createdAt,value
2022-12-18T10:03:41.180Z,69.09
2022-12-18T10:06:10.258Z,68.29
2022-12-18T10:08:45.227Z,68.64
2022-12-18T10:11:22.668Z,68.11
2022-12-18T10:13:51.604Z,67.65
2022-12-18T10:16:20.814Z,67.38
2022-12-18T10:19:11.298Z,67.70
2022-12-18T10:21:42.402Z,67.30
2022-12-18T10:24:14.482Z,66.70
2022-12-18T10:26:42.042Z,67.12
2022-12-18T10:29:11.247Z,66.75
2022-12-18T10:31:39.805Z,66.96
2022-12-18T10:34:11.650Z,67.21
2022-12-18T10:36:39.059Z,66.41
2022-12-18T10:39:16.590Z,65.13
2022-12-18T10:41:46.413Z,65.52
2022-12-18T10:44:19.932Z,65.08
2022-12-18T10:46:47.565Z,65.21
2022-12-18T10:49:26.697Z,64.63
2022-12-18T10:52:04.947Z,65.89
2022-12-18T10:54:34.505Z,67.87
2022-12-18T10:57:16.309Z,67.78
2022-12-18T10:59:51.746Z,68.38
2022-12-18T11:02:29.728Z,66.25
2022-12-18T11:04:58.615Z,66.49
2022-12-18T11:07:25.926Z,66.51
2022-12-18T11:10:01.128Z,66.28
2022-12-18T11:12:29.208Z,65.08
2022-12-18T11:14:59.293Z,65.78
2022-12-18T11:17:29.152Z,65.49
2022-12-18T11:19:58.415Z,66.23
2022-12-18T11:22:26.769Z,64.89
2022-12-18T11:25:29.462Z,64.54
2022-12-18T11:27:42.433Z,64.81
2022-12-18T11:30:09.906Z,63.57
2022-12-18T11:32:37.320Z,63.12
2022-12-18T11:35:13.182Z,63.23
2022-12-18T11:37:41.014Z,63.72
2022-12-18T11:40:11.408Z,63.39
2022-12-18T11:42:40.848Z,63.73
2022-12-18T11:45:21.547Z,62.74
2022-12-18T11:47:51.188Z,61.73
2022-12-18T11:50:22.005Z,62.25
2022-12-18T11:52:55.977Z,62.58
2022-12-18T11:55:32.119Z,60.88
2022-12-18T11:58:06.057Z,62.67
2022-12-18T12:00:33.293Z,62.51
2022-12-18T12:03:18.784Z,62.37
2022-12-18T12:06:10.150Z,63.48
2022-12-18T12:08:43.239Z,63.54
2022-12-18T12:11:14.211Z,64.26
2022-12-18T12:13:46.392Z,62.45
2022-12-18T12:16:18.275Z,63.55
2022-12-18T12:18:53.873Z,63.42
2022-12-18T12:21:24.897Z,62.03
2022-12-18T12:23:54.351Z,61.93
2022-12-18T12:26:24.454Z,61.84
2022-12-18T12:29:01.374Z,60.76
2022-12-18T12:31:41.130Z,59.85
2022-12-18T12:34:16.182Z,59.52
2022-12-18T12:36:52.479Z,58.44
2022-12-18T12:39:22.878Z,58.10
2022-12-18T12:41:50.358Z,56.97
2022-12-18T12:44:19.930Z,57.12
2022-12-18T12:46:47.718Z,56.67
2022-12-18T12:49:17.158Z,56.40
2022-12-18T12:51:47.138Z,54.66
2022-12-18T12:54:19.934Z,53.78
2022-12-18T12:56:49.440Z,54.40
2022-12-18T12:59:19.779Z,53.95
2022-12-18T13:01:51.164Z,54.42
2022-12-18T13:04:22.985Z,53.90
2022-12-18T13:06:55.794Z,53.09
2022-12-18T13:09:23.173Z,53.04
2022-12-18T13:11:53.682Z,51.84
2022-12-18T13:14:27.983Z,51.33
2022-12-18T13:17:33.894Z,52.57
2022-12-18T13:20:08.607Z,50.26
2022-12-18T13:22:37.947Z,50.56
2022-12-18T13:25:20.689Z,50.70
2022-12-18T13:28:16.161Z,50.78
2022-12-18T13:30:55.630Z,50.02
2022-12-18T13:34:24.672Z,50.49
2022-12-18T13:36:36.141Z,52.94
2022-12-18T13:39:26.696Z,50.76
2022-12-18T13:42:38.003Z,50.05
2022-12-18T13:45:24.314Z,49.28
2022-12-18T13:47:51.592Z,48.70
2022-12-18T13:50:23.245Z,48.38
2022-12-18T13:52:53.055Z,47.38
2022-12-18T13:55:21.936Z,49.92
2022-12-18T13:57:49.633Z,49.48
2022-12-18T14:00:25.823Z,49.89
2022-12-18T14:02:53.699Z,48.75
2022-12-18T14:05:24.081Z,49.59
2022-12-18T14:07:51.871Z,48.55
2022-12-18T14:13:11.042Z,49.12
2022-12-18T14:15:41.256Z,49.16
2022-12-18T14:18:18.076Z,49.63
2022-12-18T14:20:50.734Z,49.19
2022-12-18T14:23:30.555Z,48.40
2022-12-18T14:26:03.764Z,48.58
2022-12-18T14:28:33.172Z,49.59
2022-12-18T14:31:00.563Z,49.89
2022-12-18T14:33:28.363Z,51.15
2022-12-18T14:35:59.304Z,51.35
2022-12-18T14:38:30.520Z,52.27
2022-12-18T14:40:59.692Z,52.14
2022-12-18T14:43:27.600Z,53.67
2022-12-18T14:45:56.224Z,57.22
2022-12-18T14:48:25.798Z,54.92
2022-12-18T14:50:57.649Z,55.85
2022-12-18T14:53:27.425Z,54.97
2022-12-18T14:55:54.724Z,55.64
2022-12-18T14:58:24.553Z,56.67
2022-12-18T15:00:53.794Z,56.72
2022-12-18T15:03:22.122Z,52.76
2022-12-18T15:05:51.932Z,52.80
2022-12-18T15:08:31.091Z,48.29
2022-12-18T15:10:58.373Z,46.38
2022-12-18T15:13:27.105Z,51.27
2022-12-18T15:15:54.463Z,56.32
2022-12-18T15:18:23.800Z,61.71
2022-12-18T15:20:52.001Z,62.36
2022-12-18T15:23:20.617Z,63.03
2022-12-18T15:25:48.629Z,62.85
2022-12-18T15:28:19.414Z,63.09
2022-12-18T15:31:04.837Z,64.01
2022-12-18T15:33:33.563Z,64.41
2022-12-18T15:36:01.115Z,64.29
2022-12-18T15:38:28.504Z,64.32
2022-12-18T15:40:55.789Z,64.52
2022-12-18T15:43:23.344Z,65.02
2022-12-18T15:45:50.586Z,65.13
2022-12-18T15:48:22.098Z,65.51
2022-12-18T15:50:49.879Z,66.25
2022-12-18T15:53:17.246Z,65.64
2022-12-18T15:55:44.580Z,66.79
2022-12-18T15:58:11.935Z,66.60
2022-12-18T16:00:41.181Z,66.27
2022-12-18T16:03:09.503Z,65.66
2022-12-18T16:05:38.292Z,66.62
2022-12-18T16:08:05.620Z,66.52
2022-12-18T16:10:32.889Z,67.43
2022-12-18T16:13:00.241Z,66.53
2022-12-18T16:15:27.595Z,66.58
2022-12-18T16:17:54.988Z,66.10
2022-12-18T16:20:22.763Z,65.85
2022-12-18T16:22:51.645Z,66.66
2022-12-18T16:25:20.322Z,66.58
2022-12-18T16:27:47.670Z,67.66
2022-12-18T16:30:16.371Z,68.33
2022-12-18T16:32:43.667Z,68.71
2022-12-18T16:35:12.022Z,67.55
2022-12-18T16:37:39.400Z,69.02
2022-12-18T16:40:09.944Z,68.75
2022-12-18T16:42:37.377Z,69.86
2022-12-18T16:45:05.423Z,69.19
2022-12-18T16:47:32.799Z,70.13
2022-12-18T16:50:00.124Z,68.70
2022-12-18T16:52:27.537Z,68.99
2022-12-18T16:54:54.821Z,69.75
2022-12-18T16:57:25.350Z,69.16
2022-12-18T16:59:52.893Z,69.20
2022-12-18T17:02:23.372Z,69.39
2022-12-18T17:04:51.066Z,69.17
2022-12-18T17:07:18.380Z,69.59
2022-12-18T17:09:45.744Z,68.33
2022-12-18T17:12:12.982Z,68.32
2022-12-18T17:14:41.704Z,69.12
2022-12-18T17:17:24.471Z,68.26
2022-12-18T17:19:52.698Z,68.01
2022-12-18T17:22:20.220Z,67.65
2022-12-18T17:24:47.533Z,67.92
2022-12-18T17:27:14.996Z,69.43
2022-12-18T17:29:47.741Z,69.01
2022-12-18T17:32:16.182Z,69.67
2022-12-18T17:34:43.649Z,70.23
2022-12-18T17:37:13.875Z,70.32
2022-12-18T17:39:41.354Z,71.02
2022-12-18T17:42:08.675Z,72.58
2022-12-18T17:44:38.223Z,70.77
2022-12-18T17:47:07.032Z,70.57
2022-12-18T17:49:34.505Z,70.62
2022-12-18T17:52:01.845Z,70.46
2022-12-18T17:54:29.259Z,69.42
2022-12-18T17:56:56.815Z,69.64
2022-12-18T17:59:26.563Z,69.32
2022-12-18T18:01:54.021Z,68.19
2022-12-18T18:04:23.140Z,70.10
2022-12-18T18:06:50.396Z,68.77
2022-12-18T18:09:17.794Z,69.91
2022-12-18T18:11:45.069Z,69.40
2022-12-18T18:14:13.580Z,69.67
2022-12-18T18:16:42.028Z,70.64
2022-12-18T18:19:10.197Z,70.73
2022-12-18T18:21:40.512Z,69.87
2022-12-18T18:24:08.768Z,69.55
2022-12-18T18:26:37.923Z,69.28
2022-12-18T18:29:05.987Z,69.46
2022-12-18T18:31:33.415Z,69.38
2022-12-18T18:34:03.041Z,69.24
2022-12-18T18:36:30.334Z,69.11
2022-12-18T18:39:00.546Z,69.06
2022-12-18T18:41:30.623Z,69.51
2022-12-18T18:43:58.109Z,69.00
2022-12-18T18:46:25.488Z,69.64
2022-12-18T18:48:52.844Z,69.56
2022-12-18T18:51:21.377Z,69.33
2022-12-18T18:53:49.815Z,68.56
2022-12-18T18:56:56.738Z,68.79
2022-12-18T18:59:06.450Z,69.00
2022-12-18T19:01:33.823Z,69.70
2022-12-18T19:04:01.082Z,69.10
2022-12-18T19:06:29.885Z,68.92
2022-12-18T19:08:58.415Z,69.34
2022-12-18T19:11:30.619Z,69.25
2022-12-18T19:14:03.020Z,69.04
2022-12-18T19:16:30.405Z,69.11
2022-12-18T19:19:01.973Z,69.82
2022-12-18T19:21:30.473Z,69.44
2022-12-18T19:24:01.343Z,69.50
2022-12-18T19:26:30.125Z,69.94
2022-12-18T19:29:01.387Z,69.15
2022-12-18T19:31:34.771Z,69.04
2022-12-18T19:34:03.562Z,69.16
2022-12-18T19:36:31.320Z,68.72
2022-12-18T19:39:00.184Z,71.17
2022-12-18T19:41:31.260Z,71.36
2022-12-18T19:44:07.859Z,71.73
2022-12-18T19:46:37.886Z,71.75
2022-12-18T19:49:09.142Z,70.40
2022-12-18T19:51:36.519Z,70.31
2022-12-18T19:54:04.009Z,69.72
2022-12-18T19:56:33.484Z,70.32
2022-12-18T19:59:00.679Z,70.60
2022-12-18T20:01:28.214Z,69.98
2022-12-18T20:03:56.847Z,69.93
2022-12-18T20:06:26.578Z,70.68
2022-12-18T20:08:56.815Z,69.88
2022-12-18T20:11:27.762Z,70.27
2022-12-18T20:13:56.300Z,69.24
2022-12-18T20:16:23.400Z,70.84
2022-12-18T20:18:50.727Z,70.58
2022-12-18T20:21:20.655Z,69.63
2022-12-18T20:23:47.927Z,70.49
2022-12-18T20:26:15.074Z,71.09
2022-12-18T20:28:42.253Z,69.69
2022-12-18T20:31:13.512Z,70.02
2022-12-18T20:33:41.904Z,70.60
2022-12-18T20:36:12.679Z,70.73
2022-12-18T20:38:40.182Z,70.77
2022-12-18T20:41:08.216Z,73.04
2022-12-18T20:43:35.489Z,72.88
2022-12-18T20:46:02.722Z,72.20
2022-12-18T20:48:31.788Z,72.01
2022-12-18T20:50:59.466Z,70.73
2022-12-18T20:53:29.223Z,71.61
2022-12-18T20:55:56.414Z,70.67
2022-12-18T20:58:23.596Z,70.62
2022-12-18T21:00:50.874Z,70.71
2022-12-18T21:03:18.216Z,70.70
2022-12-18T21:05:46.889Z,71.04
2022-12-18T21:08:14.227Z,70.99
2022-12-18T21:10:45.125Z,70.62
2022-12-18T21:13:12.655Z,70.50
2022-12-18T21:15:41.552Z,71.26
2022-12-18T21:18:08.821Z,71.19
2022-12-18T21:20:36.108Z,71.16
2022-12-18T21:23:13.200Z,71.02
2022-12-18T21:25:44.042Z,71.69
2022-12-18T21:28:12.903Z,71.23
2022-12-18T21:30:40.319Z,70.98
2022-12-18T21:33:07.533Z,70.40
2022-12-18T21:35:34.850Z,71.02
2022-12-18T21:38:03.860Z,70.14
2022-12-18T21:40:34.384Z,70.18
2022-12-18T21:43:01.756Z,70.21
2022-12-18T21:45:28.931Z,70.67
2022-12-18T21:47:56.284Z,71.18
2022-12-18T21:50:23.664Z,70.92
2022-12-18T21:52:50.945Z,70.83
2022-12-18T21:55:18.258Z,72.41
2022-12-18T21:57:46.917Z,71.17
2022-12-18T22:00:19.062Z,71.15
2022-12-18T22:02:47.838Z,71.87
2022-12-18T22:05:15.297Z,71.14
2022-12-18T22:07:42.569Z,71.31
2022-12-18T22:10:10.214Z,72.03
